createdAt,value
2019-02-10T00:01:08.431Z,71.60
2019-02-10T00:03:41.062Z,71.56
2019-02-10T00:06:12.989Z,71.92
2019-02-10T00:08:44.798Z,72.66
2019-02-10T00:11:17.565Z,73.25
2019-02-10T00:13:49.396Z,73.80
2019-02-10T00:16:22.681Z,74.51
2019-02-10T00:18:54.468Z,74.84
2019-02-10T00:21:26.238Z,75.31
2019-02-10T00:23:58.012Z,75.67
2019-02-10T00:26:30.890Z,75.51
2019-02-10T00:29:02.626Z,75.16
2019-02-10T00:31:34.471Z,75.31
2019-02-10T00:34:06.241Z,75.15
2019-02-10T00:36:37.992Z,74.94
2019-02-10T00:39:10.548Z,74.81
2019-02-10T00:41:42.350Z,74.60
2019-02-10T00:44:14.137Z,74.14
2019-02-10T00:46:45.885Z,73.91
2019-02-10T00:49:17.635Z,73.70
2019-02-10T00:51:49.391Z,73.56
2019-02-10T00:54:21.205Z,73.52
2019-02-10T00:56:53.004Z,73.72
2019-02-10T00:59:24.777Z,74.00
2019-02-10T01:01:56.581Z,74.12
2019-02-10T01:04:28.395Z,74.17
2019-02-10T01:07:00.153Z,74.28
2019-02-10T01:09:31.947Z,74.75
2019-02-10T01:12:03.931Z,75.17
2019-02-10T01:14:37.113Z,75.83
2019-02-10T01:17:09.947Z,76.32
2019-02-10T01:19:41.719Z,76.58
2019-02-10T01:22:13.496Z,77.19
2019-02-10T01:24:45.241Z,77.27
2019-02-10T01:27:17.037Z,76.82
2019-02-10T01:29:48.798Z,76.41
2019-02-10T01:32:20.668Z,76.16
2019-02-10T01:34:52.475Z,75.86
2019-02-10T01:37:24.239Z,75.36
2019-02-10T01:39:56.085Z,74.79
2019-02-10T01:42:27.880Z,74.39
2019-02-10T01:44:59.624Z,74.38
2019-02-10T01:47:31.420Z,74.19
2019-02-10T01:50:03.213Z,74.24
2019-02-10T01:52:34.951Z,74.55
2019-02-10T01:55:08.855Z,74.94
2019-02-10T01:57:40.614Z,75.22
2019-02-10T02:00:16.071Z,75.55
2019-02-10T02:02:48.093Z,76.23
2019-02-10T02:05:19.872Z,76.53
2019-02-10T02:07:51.616Z,77.26
2019-02-10T02:10:23.500Z,77.12
2019-02-10T02:12:55.248Z,76.98
2019-02-10T02:15:27.062Z,77.43
2019-02-10T02:17:58.844Z,77.21
2019-02-10T02:20:30.629Z,77.57
2019-02-10T02:23:02.449Z,77.95
2019-02-10T02:25:34.228Z,78.05
2019-02-10T02:28:05.981Z,78.51
2019-02-10T02:30:37.745Z,78.62
2019-02-10T02:33:09.670Z,79.04
2019-02-10T02:35:41.534Z,79.33
2019-02-10T02:38:13.318Z,79.43
2019-02-10T02:40:45.067Z,79.67
2019-02-10T02:43:16.929Z,80.00
2019-02-10T02:45:48.761Z,80.19
2019-02-10T02:48:20.556Z,80.64
2019-02-10T02:50:52.321Z,80.94
2019-02-10T02:53:24.088Z,81.15
2019-02-10T02:55:55.849Z,81.90
2019-02-10T02:58:27.642Z,81.87
2019-02-10T03:00:59.438Z,81.98
2019-02-10T03:03:31.188Z,82.24
2019-02-10T03:06:02.964Z,82.01
2019-02-10T03:08:34.739Z,82.47
2019-02-10T03:11:06.486Z,82.96
2019-02-10T03:13:38.296Z,83.66
2019-02-10T03:16:10.083Z,83.46
2019-02-10T03:18:41.880Z,84.41
2019-02-10T03:21:13.681Z,83.98
2019-02-10T03:23:45.406Z,84.10
2019-02-10T03:26:17.179Z,84.37
2019-02-10T03:28:48.988Z,84.38
2019-02-10T03:31:20.756Z,85.06
2019-02-10T03:33:52.512Z,84.59
2019-02-10T03:36:24.272Z,84.20
2019-02-10T03:38:58.148Z,84.76
2019-02-10T03:41:33.185Z,84.99
2019-02-10T03:44:05.025Z,85.39
2019-02-10T03:46:36.944Z,85.64
2019-02-10T03:49:09.824Z,85.74
2019-02-10T03:51:41.591Z,85.32
2019-02-10T03:54:13.585Z,85.35
2019-02-10T03:56:45.714Z,85.61
2019-02-10T03:59:18.647Z,85.26
2019-02-10T04:01:52.692Z,85.71
2019-02-10T04:04:24.655Z,85.59
2019-02-10T04:06:56.442Z,85.90
2019-02-10T04:09:28.267Z,86.01
2019-02-10T04:12:00.289Z,85.92
2019-02-10T04:14:32.309Z,86.17
2019-02-10T04:17:04.195Z,86.23
2019-02-10T04:19:36.135Z,86.45
2019-02-10T04:22:08.054Z,86.16
2019-02-10T04:24:41.791Z,86.62
2019-02-10T04:27:13.640Z,86.30
2019-02-10T04:29:45.481Z,86.61
2019-02-10T04:32:17.275Z,86.62
2019-02-10T04:34:49.071Z,86.45
2019-02-10T04:37:20.940Z,86.17
2019-02-10T04:39:52.673Z,86.33
2019-02-10T04:42:24.450Z,86.52
2019-02-10T04:44:56.296Z,86.12
2019-02-10T04:47:28.127Z,86.48
2019-02-10T04:49:59.849Z,86.32
2019-02-10T04:52:31.743Z,86.16
2019-02-10T04:55:03.551Z,86.38
2019-02-10T04:57:35.371Z,86.01
2019-02-10T05:00:07.939Z,86.18
2019-02-10T05:02:39.801Z,86.04
2019-02-10T05:05:11.550Z,86.20
2019-02-10T05:07:43.288Z,86.14
2019-02-10T05:10:15.099Z,85.83
2019-02-10T05:12:46.947Z,85.78
2019-02-10T05:15:18.739Z,85.49
2019-02-10T05:17:50.508Z,85.42
2019-02-10T05:20:22.260Z,85.34
2019-02-10T05:22:54.011Z,85.30
2019-02-10T05:25:25.777Z,85.25
2019-02-10T05:27:57.596Z,85.24
2019-02-10T05:30:29.404Z,85.22
2019-02-10T05:33:01.212Z,85.22
2019-02-10T05:35:33.020Z,85.17
2019-02-10T05:38:04.824Z,85.05
2019-02-10T05:40:36.631Z,84.88
2019-02-10T05:43:08.426Z,84.71
2019-02-10T05:45:40.247Z,84.58
2019-02-10T05:48:12.059Z,84.43
2019-02-10T05:50:43.957Z,84.44
2019-02-10T05:53:15.739Z,84.44
2019-02-10T05:55:47.587Z,84.18
2019-02-10T05:58:19.301Z,83.63
2019-02-10T06:00:51.220Z,83.20
2019-02-10T06:03:23.132Z,82.98
2019-02-10T06:05:55.159Z,82.74
2019-02-10T06:08:27.247Z,82.14
2019-02-10T06:10:59.137Z,81.67
2019-02-10T06:13:30.936Z,81.05
2019-02-10T06:16:03.103Z,80.72
2019-02-10T06:18:34.951Z,80.34
2019-02-10T06:21:06.731Z,80.27
2019-02-10T06:23:38.524Z,80.22
2019-02-10T06:26:10.293Z,79.84
2019-02-10T06:28:42.086Z,79.77
2019-02-10T06:31:14.018Z,79.52
2019-02-10T06:33:45.842Z,79.32
2019-02-10T06:36:20.715Z,78.89
2019-02-10T06:38:52.517Z,78.33
2019-02-10T06:41:24.277Z,78.09
2019-02-10T06:43:56.208Z,77.72
2019-02-10T06:46:27.966Z,77.84
2019-02-10T06:48:59.755Z,77.40
2019-02-10T06:51:31.551Z,76.97
2019-02-10T06:54:03.349Z,77.12
2019-02-10T06:56:35.152Z,76.95
2019-02-10T06:59:09.817Z,76.83
2019-02-10T07:02:03.411Z,76.42
2019-02-10T07:04:35.130Z,76.34
2019-02-10T07:07:06.910Z,76.43
2019-02-10T07:09:41.759Z,76.38
2019-02-10T07:12:50.758Z,76.46
2019-02-10T07:16:16.354Z,76.59
2019-02-10T07:19:41.861Z,76.51
2019-02-10T07:23:21.586Z,75.94
2019-02-10T07:26:20.146Z,75.57
2019-02-10T07:29:42.390Z,75.45
2019-02-10T07:32:27.885Z,75.29
2019-02-10T07:36:01.806Z,74.67
2019-02-10T07:39:09.602Z,73.88
2019-02-10T07:42:28.494Z,73.38
2019-02-10T07:46:05.436Z,72.88
2019-02-10T07:49:31.638Z,72.48
2019-02-10T07:52:53.298Z,72.31
2019-02-10T07:56:33.162Z,72.03
2019-02-10T08:00:01.680Z,71.74
2019-02-10T08:03:33.562Z,71.39
2019-02-10T08:06:48.111Z,70.76
2019-02-10T08:10:16.414Z,70.00
2019-02-10T08:13:33.223Z,69.79
2019-02-10T08:17:10.655Z,68.86
2019-02-10T08:20:31.182Z,68.37
2019-02-10T08:23:35.601Z,67.83
2019-02-10T08:26:43.916Z,67.12
2019-02-10T08:30:18.200Z,66.59
2019-02-10T08:33:30.583Z,66.02
2019-02-10T08:36:18.230Z,65.71
2019-02-10T08:39:24.583Z,65.60
2019-02-10T08:42:07.894Z,65.48
2019-02-10T08:45:31.182Z,64.92
2019-02-10T08:49:17.869Z,64.67
2019-02-10T08:52:37.271Z,64.12
2019-02-10T08:55:10.352Z,63.94
2019-02-10T08:57:42.205Z,63.29
2019-02-10T09:00:14.165Z,63.28
2019-02-10T09:02:45.982Z,63.52
2019-02-10T09:05:17.890Z,62.87
2019-02-10T09:07:49.910Z,62.77
2019-02-10T09:10:21.782Z,61.52
2019-02-10T09:12:54.892Z,61.17
2019-02-10T09:15:26.805Z,61.13
2019-02-10T09:17:58.569Z,60.91
2019-02-10T09:20:32.377Z,60.81
2019-02-10T09:23:04.171Z,60.72
2019-02-10T09:25:36.133Z,60.15
2019-02-10T09:28:07.989Z,59.80
2019-02-10T09:30:40.319Z,60.01
2019-02-10T09:33:12.142Z,59.74
2019-02-10T09:35:43.885Z,59.95
2019-02-10T09:38:15.758Z,61.62
2019-02-10T09:40:47.509Z,63.51
2019-02-10T09:43:19.299Z,64.49
2019-02-10T09:45:51.093Z,65.00
2019-02-10T09:48:22.980Z,65.47
2019-02-10T09:50:55.522Z,65.33
2019-02-10T09:53:27.410Z,64.75
2019-02-10T09:56:00.848Z,64.52
2019-02-10T09:58:32.692Z,64.61
2019-02-10T10:01:04.561Z,65.19
2019-02-10T10:03:38.159Z,65.46
2019-02-10T10:06:09.925Z,65.63
2019-02-10T10:08:41.748Z,65.60
2019-02-10T10:11:13.570Z,65.69
2019-02-10T10:13:45.430Z,65.27
2019-02-10T10:16:17.265Z,64.92
2019-02-10T10:18:49.015Z,64.51
2019-02-10T10:21:20.792Z,63.45
2019-02-10T10:23:52.541Z,63.02
2019-02-10T10:26:24.463Z,62.67
2019-02-10T10:28:56.521Z,61.93
2019-02-10T10:31:28.375Z,61.04
2019-02-10T10:34:00.293Z,60.18
2019-02-10T10:36:32.232Z,58.79
2019-02-10T10:39:05.793Z,58.70
2019-02-10T10:41:37.973Z,58.82
2019-02-10T10:44:10.035Z,57.30
2019-02-10T10:46:42.042Z,56.97
2019-02-10T10:49:13.939Z,56.40
2019-02-10T10:51:45.980Z,56.84
2019-02-10T10:54:17.875Z,56.38
2019-02-10T10:56:49.676Z,56.10
2019-02-10T10:59:21.550Z,56.52
2019-02-10T11:01:53.457Z,56.67
2019-02-10T11:04:25.345Z,56.77
2019-02-10T11:06:57.172Z,55.87
2019-02-10T11:09:35.437Z,55.07
2019-02-10T11:12:03.020Z,54.90
2019-02-10T11:14:34.776Z,55.04
2019-02-10T11:17:10.486Z,54.66
2019-02-10T11:19:40.114Z,54.85
2019-02-10T11:22:11.964Z,54.31
2019-02-10T11:24:46.796Z,54.38
2019-02-10T11:27:19.237Z,54.23
2019-02-10T11:29:51.098Z,54.39
2019-02-10T11:32:23.303Z,54.07
2019-02-10T11:34:55.222Z,54.49
2019-02-10T11:37:27.183Z,54.33
2019-02-10T11:40:01.943Z,54.60
2019-02-10T11:42:35.423Z,55.52
2019-02-10T11:45:09.028Z,55.03
2019-02-10T11:47:40.953Z,55.29
2019-02-10T11:50:13.022Z,55.02
2019-02-10T11:52:44.933Z,55.06
2019-02-10T11:55:16.791Z,55.12
2019-02-10T11:57:48.700Z,55.72
2019-02-10T12:00:21.548Z,55.89
2019-02-10T12:02:53.500Z,56.29
2019-02-10T12:05:25.402Z,56.79
2019-02-10T12:08:03.128Z,57.49
2019-02-10T12:10:34.790Z,57.56
2019-02-10T12:13:06.614Z,57.45
2019-02-10T12:15:38.522Z,57.55
2019-02-10T12:18:10.400Z,57.12
2019-02-10T12:20:42.284Z,56.71
2019-02-10T12:23:14.056Z,57.87
2019-02-10T12:25:45.886Z,58.11
2019-02-10T12:28:19.202Z,58.17
2019-02-10T12:30:52.400Z,58.87
2019-02-10T12:33:24.371Z,59.34
2019-02-10T12:35:58.262Z,60.12
2019-02-10T12:38:29.997Z,60.09
2019-02-10T12:41:02.024Z,61.12
2019-02-10T12:43:35.497Z,61.15
2019-02-10T12:46:08.721Z,61.64
2019-02-10T12:48:56.232Z,61.11
2019-02-10T12:51:19.432Z,60.79
2019-02-10T12:53:56.314Z,60.58
2019-02-10T12:56:28.530Z,62.02
2019-02-10T12:59:01.197Z,61.06
2019-02-10T13:01:33.126Z,61.28
2019-02-10T13:04:05.766Z,61.24
2019-02-10T13:06:41.302Z,60.92
2019-02-10T13:09:16.481Z,60.67
2019-02-10T13:11:48.414Z,61.13
2019-02-10T13:14:20.763Z,61.80
2019-02-10T13:16:53.213Z,60.63
2019-02-10T13:19:48.787Z,60.59
2019-02-10T13:22:39.488Z,60.17
2019-02-10T13:25:19.438Z,59.57
2019-02-10T13:27:54.475Z,59.20
2019-02-10T13:30:26.735Z,59.59
2019-02-10T13:33:01.412Z,59.35
2019-02-10T13:35:33.770Z,59.01
2019-02-10T13:38:05.881Z,59.23
2019-02-10T13:43:54.172Z,58.03
2019-02-10T13:47:03.583Z,57.41
2019-02-10T14:01:49.327Z,57.51
2019-02-10T14:05:26.451Z,56.82
2019-02-10T14:07:56.851Z,58.04
2019-02-10T14:10:51.435Z,59.05
2019-02-10T14:13:41.667Z,57.49
2019-02-10T14:19:45.181Z,57.28
2019-02-10T14:23:01.162Z,56.87
2019-02-10T14:26:10.931Z,56.61
2019-02-10T14:28:58.393Z,56.53
2019-02-10T14:32:26.827Z,57.94
2019-02-10T14:46:55.273Z,61.08
2019-02-10T14:53:55.817Z,61.93
2019-02-10T17:17:08.223Z,63.00
2019-02-10T17:20:59.351Z,62.63
2019-02-10T17:22:52.513Z,62.93
2019-02-10T17:28:50.776Z,63.28
2019-02-10T18:30:52.760Z,61.03
2019-02-10T18:33:58.489Z,61.18
2019-02-10T18:37:52.408Z,61.13
2019-02-10T18:40:51.638Z,60.97
2019-02-10T18:43:47.515Z,60.90
2019-02-10T18:46:47.262Z,60.57
2019-02-10T18:49:34.757Z,60.76
2019-02-10T18:52:27.545Z,59.79
2019-02-10T18:55:23.903Z,59.02
2019-02-10T18:58:16.919Z,59.04
2019-02-10T19:01:06.950Z,59.68
2019-02-10T19:03:59.783Z,59.55
2019-02-10T19:06:54.645Z,59.71
2019-02-10T19:10:15.963Z,59.88
2019-02-10T19:20:37.029Z,59.57
2019-02-10T19:23:52.366Z,59.85
2019-02-10T19:27:00.880Z,59.91
2019-02-10T19:30:03.203Z,60.22
2019-02-10T19:32:57.278Z,60.61
2019-02-10T19:35:38.351Z,61.12
2019-02-10T19:38:35.865Z,61.30
2019-02-10T19:41:24.660Z,61.34
2019-02-10T19:44:19.354Z,61.70
2019-02-10T19:47:01.381Z,62.29
2019-02-10T19:50:14.781Z,63.86
2019-02-10T19:53:11.905Z,63.90
2019-02-10T19:56:00.709Z,64.13
2019-02-10T19:58:53.859Z,65.09
2019-02-10T20:01:44.794Z,65.60
2019-02-10T20:04:36.073Z,66.51
2019-02-10T20:07:29.839Z,66.81
2019-02-10T20:10:27.132Z,68.25
2019-02-10T20:13:27.732Z,69.78
2019-02-10T20:16:32.333Z,70.59
2019-02-10T20:19:18.653Z,70.60
2019-02-10T20:22:10.874Z,71.69
2019-02-10T20:25:08.452Z,72.42
2019-02-10T20:28:11.362Z,73.08
2019-02-10T20:31:17.516Z,73.55
2019-02-10T20:34:03.669Z,73.43
2019-02-10T20:36:53.462Z,73.77
2019-02-10T20:39:43.896Z,74.12
2019-02-10T20:42:26.614Z,75.87
2019-02-10T20:45:14.561Z,75.42
2019-02-10T20:48:03.755Z,75.60
2019-02-10T20:51:00.063Z,76.43
2019-02-10T20:53:51.467Z,76.35
2019-02-10T20:56:30.716Z,76.14
2019-02-10T20:59:25.206Z,76.18
2019-02-10T21:02:20.474Z,75.90
2019-02-10T21:05:08.200Z,75.79
2019-02-10T21:08:33.452Z,75.43
2019-02-10T21:11:27.364Z,75.45
2019-02-10T21:14:12.339Z,75.64
2019-02-10T21:16:50.905Z,75.29
2019-02-10T21:20:03.172Z,75.20
2019-02-10T21:22:43.737Z,75.11
2019-02-10T21:25:26.073Z,75.10
2019-02-10T21:28:19.237Z,75.39
2019-02-10T21:31:16.278Z,75.12
2019-02-10T21:34:07.608Z,75.51
2019-02-10T21:36:58.689Z,75.55
2019-02-10T21:39:40.690Z,75.21
2019-02-10T21:42:49.995Z,75.41
2019-02-10T21:45:39.229Z,75.95
2019-02-10T21:48:20.513Z,76.14
2019-02-10T21:50:52.879Z,76.18
2019-02-10T21:53:27.251Z,76.13
2019-02-10T21:56:00.071Z,75.98
2019-02-10T21:58:39.349Z,75.97
2019-02-10T22:01:14.449Z,75.30
2019-02-10T22:03:46.587Z,74.63
2019-02-10T22:06:21.741Z,74.47
2019-02-10T22:08:55.115Z,73.95
2019-02-10T22:11:28.263Z,73.38
2019-02-10T22:14:00.531Z,73.06
2019-02-10T22:16:32.776Z,73.00
2019-02-10T22:19:06.083Z,72.95
2019-02-10T22:21:38.393Z,72.92
2019-02-10T22:24:13.477Z,72.69
2019-02-10T22:26:47.161Z,73.32
2019-02-10T22:29:19.153Z,73.35
2019-02-10T22:31:51.178Z,73.30
2019-02-10T22:34:23.120Z,72.28
2019-02-10T22:36:57.558Z,73.17
2019-02-10T22:39:34.063Z,72.18
2019-02-10T22:42:06.097Z,71.58
2019-02-10T22:44:37.956Z,70.95
2019-02-10T22:47:10.013Z,72.03
2019-02-10T22:49:43.182Z,73.55
2019-02-10T22:52:15.154Z,73.72
2019-02-10T22:54:47.454Z,74.57
2019-02-10T22:57:19.487Z,75.31
2019-02-10T22:59:51.671Z,75.93
2019-02-10T23:02:23.928Z,76.23
2019-02-10T23:04:57.825Z,76.08
2019-02-10T23:07:29.804Z,76.84
2019-02-10T23:10:01.808Z,76.77
2019-02-10T23:12:33.977Z,76.57
2019-02-10T23:15:08.998Z,76.77
2019-02-10T23:17:43.828Z,76.43
2019-02-10T23:20:15.934Z,76.02
2019-02-10T23:22:47.978Z,75.56
2019-02-10T23:25:19.969Z,75.24
2019-02-10T23:27:51.965Z,74.20
2019-02-10T23:30:23.923Z,73.75
2019-02-10T23:33:00.130Z,73.17
2019-02-10T23:35:31.995Z,72.79
2019-02-10T23:38:03.950Z,71.75
2019-02-10T23:40:37.730Z,71.76
2019-02-10T23:43:12.703Z,71.25
2019-02-10T23:45:46.276Z,71.30
2019-02-10T23:48:29.370Z,71.41
2019-02-10T23:51:01.690Z,71.30
2019-02-10T23:53:38.056Z,71.37
2019-02-10T23:56:14.016Z,71.16
2019-02-10T23:58:47.836Z,71.36
